Time;durP1;ratioP1;P1;durP2;ratioP2;P2;SDS_P1;SDS_P2;PMS_P1;PMS_P2;Temp;Humidity;BMP_temperature;BMP_pressure;BME280_temperature;BME280_humidity;BME280_pressure;Samples;Min_cycle;Max_cycle;Signal;HPM_P1;HPM_P2
2023/01/29 00:02:32;;;;;;;31.63;21.37;;;;;;;-0.39;100.00;102980.41;5113526;29;20498;-76
2023/01/29 00:05:05;;;;;;;29.63;20.83;;;;;;;-0.40;100.00;102981.25;5115606;29;20036;-77
2023/01/29 00:07:36;;;;;;;31.47;22.10;;;;;;;-0.37;100.00;102976.16;5117393;28;20387;-73
2023/01/29 00:10:09;;;;;;;28.93;20.03;;;;;;;-0.31;100.00;102971.13;5128276;28;20024;-75
2023/01/29 00:12:40;;;;;;;32.73;21.03;;;;;;;-0.33;100.00;102954.75;5112436;29;20513;-76
2023/01/29 00:15:11;;;;;;;32.40;21.20;;;;;;;-0.34;100.00;102945.31;5109860;29;20052;-74
2023/01/29 00:17:43;;;;;;;29.73;21.37;;;;;;;-0.34;100.00;102965.91;5109385;28;20029;-77
2023/01/29 00:20:15;;;;;;;32.30;22.63;;;;;;;-0.35;100.00;102951.31;5113366;28;20372;-77
2023/01/29 00:22:46;;;;;;;28.37;20.27;;;;;;;-0.29;100.00;102954.00;5110192;29;20043;-76
2023/01/29 00:25:17;;;;;;;31.97;21.53;;;;;;;-0.29;100.00;102943.69;5114208;29;20509;-77
2023/01/29 00:27:49;;;;;;;29.83;21.60;;;;;;;-0.30;100.00;102944.56;5128524;29;20027;-74
2023/01/29 00:30:20;;;;;;;28.17;19.97;;;;;;;-0.29;100.00;102943.69;5126719;28;20052;-77
2023/01/29 00:32:52;;;;;;;28.30;21.10;;;;;;;-0.29;100.00;102930.81;5125334;29;20032;-78
2023/01/29 00:35:24;;;;;;;30.47;21.60;;;;;;;-0.26;100.00;102943.75;5130238;29;20027;-74
2023/01/29 00:37:55;;;;;;;28.07;21.30;;;;;;;-0.30;100.00;102934.25;5130270;29;20078;-77
2023/01/29 00:40:26;;;;;;;30.07;20.83;;;;;;;-0.25;100.00;102949.78;5128861;29;20072;-73
2023/01/29 00:45:48;;;;;;;30.00;21.13;;;;;;;-0.33;100.00;102931.59;5129291;29;20036;-76
2023/01/29 00:48:19;;;;;;;32.53;22.47;;;;;;;-0.26;100.00;102942.88;5128753;28;20035;-76
2023/01/29 00:50:50;;;;;;;32.13;22.47;;;;;;;-0.43;100.00;102907.38;5129154;29;20050;-77
2023/01/29 00:53:21;;;;;;;31.83;22.63;;;;;;;-0.24;100.00;102918.03;5130005;29;20043;-74
2023/01/29 00:55:53;;;;;;;27.43;20.43;;;;;;;-0.25;100.00;102914.59;5129425;28;20482;-77
2023/01/29 00:58:27;;;;;;;29.53;20.77;;;;;;;-0.23;100.00;102913.75;5129731;29;20676;-78
2023/01/29 01:00:59;;;;;;;29.73;20.80;;;;;;;-0.25;100.00;102914.59;5146988;28;20034;-74
2023/01/29 01:03:34;;;;;;;31.20;20.60;;;;;;;-0.29;100.00;102907.66;5154677;28;20043;-77
2023/01/29 01:06:07;;;;;;;31.40;20.95;;;;;;;-0.35;100.00;102897.25;5128812;28;20023;-76
2023/01/29 01:11:28;;;;;;;29.63;20.87;;;;;;;-0.38;100.00;102892.00;5129813;29;20044;-77
2023/01/29 01:14:01;;;;;;;27.03;20.60;;;;;;;-0.32;100.00;102911.88;5128933;28;20040;-74
2023/01/29 01:16:32;;;;;;;34.03;21.97;;;;;;;-0.35;100.00;102904.09;5129125;29;20036;-75
2023/01/29 01:19:03;;;;;;;29.80;21.33;;;;;;;-0.47;100.00;102895.25;5128916;29;20046;-77
2023/01/29 01:21:35;;;;;;;29.70;20.90;;;;;;;-0.39;100.00;102919.50;5129449;29;20086;-77
2023/01/29 01:24:06;;;;;;;31.37;20.97;;;;;;;-0.34;100.00;102923.84;5128530;29;20119;-76
2023/01/29 01:26:38;;;;;;;28.07;21.20;;;;;;;-0.36;100.00;102910.94;5130105;29;20035;-77
2023/01/29 01:29:09;;;;;;;33.00;21.67;;;;;;;-0.39;100.00;102905.72;5128861;29;20032;-77
2023/01/29 01:31:40;;;;;;;28.23;19.93;;;;;;;-0.37;100.00;102915.22;5127495;28;20042;-78
2023/01/29 01:34:12;;;;;;;28.10;20.63;;;;;;;-0.41;100.00;102902.25;5127589;29;20545;-76
2023/01/29 01:36:43;;;;;;;32.93;21.73;;;;;;;-0.37;100.00;102917.78;5128946;29;20474;-75
2023/01/29 01:39:14;;;;;;;29.90;22.07;;;;;;;-0.37;100.00;102920.34;5129612;29;20059;-77
2023/01/29 01:41:45;;;;;;;29.20;20.53;;;;;;;-0.42;100.00;102908.25;5129041;29;20074;-78
2023/01/29 01:45:09;;;;;;;32.43;22.43;;;;;;;-0.34;100.00;102919.56;5127811;29;20138;-74
2023/01/29 01:47:45;;;;;;;31.13;22.83;;;;;;;-0.38;100.00;102910.91;5095776;29;20668;-77
2023/01/29 01:50:30;;;;;;;32.37;22.33;;;;;;;-0.38;100.00;102912.59;5127638;28;20667;-75
2023/01/29 01:53:12;;;;;;;27.83;20.00;;;;;;;-0.41;100.00;102902.25;5128937;28;20480;-76
2023/01/29 01:55:49;;;;;;;33.37;22.63;;;;;;;-0.42;100.00;102914.25;5127460;29;20518;-78
2023/01/29 01:58:25;;;;;;;34.93;23.23;;;;;;;-0.47;100.00;102907.28;5128804;28;20284;-77
2023/01/29 02:00:56;;;;;;;33.97;23.57;;;;;;;-0.43;100.00;102920.25;5106981;28;20024;-72
2023/01/29 02:09:34;;;;;;;33.37;24.03;;;;;;;-0.47;100.00;102926.16;5205961;28;20264;-73
2023/01/29 02:12:11;;;;;;;33.47;24.33;;;;;;;-0.60;100.00;102912.19;5158899;28;20303;-76
2023/01/29 02:14:43;;;;;;;34.40;23.27;;;;;;;-0.60;100.00;102925.06;5125257;28;20517;-72
2023/01/29 02:17:18;;;;;;;31.80;22.63;;;;;;;-0.62;100.00;102922.44;5142098;28;20305;-73
2023/01/29 02:19:54;;;;;;;;;;;;;;;-0.54;100.00;102921.75;5147849;28;20035;-72
2023/01/29 02:22:44;;;;;;;32.57;23.37;;;;;;;-0.65;100.00;102934.38;5192501;28;19917;-73
2023/01/29 02:25:22;;;;;;;38.10;25.00;;;;;;;-0.65;100.00;102936.97;5160763;28;20361;-74
2023/01/29 02:28:35;;;;;;;37.37;23.50;;;;;;;-0.59;100.00;102934.50;5207483;28;20291;-76
2023/01/29 02:31:32;;;;;;;34.67;23.40;;;;;;;-0.60;100.00;102935.34;5131911;28;20135;-73
2023/01/29 02:34:26;;;;;;;39.17;25.33;;;;;;;-0.58;100.00;102932.81;5191718;28;20817;-74
2023/01/29 02:37:08;;;;;;;36.87;26.23;;;;;;;-0.63;100.00;102932.72;5166710;28;20051;-74
2023/01/29 02:39:54;;;;;;;37.03;25.40;;;;;;;-0.70;100.00;102917.97;5187072;28;21226;-77
2023/01/29 02:42:43;;;;;;;35.63;26.03;;;;;;;-0.56;100.00;102933.72;5223273;28;20367;-76
2023/01/29 02:45:21;;;;;;;39.60;27.23;;;;;;;-0.61;100.00;102929.31;5137881;28;20047;-75
2023/01/29 02:47:58;;;;;;;34.50;24.80;;;;;;;-0.61;100.00;102929.31;5157234;28;20389;-72
2023/01/29 02:50:40;;;;;;;35.30;24.17;;;;;;;-0.66;100.00;102927.47;5196136;28;20041;-73
2023/01/29 02:53:17;;;;;;;34.97;25.10;;;;;;;-0.55;100.00;102930.28;5191650;28;20513;-72
2023/01/29 02:55:58;;;;;;;33.93;24.40;;;;;;;-0.55;100.00;102918.28;5166726;28;20276;-75
2023/01/29 02:58:38;;;;;;;36.83;26.93;;;;;;;-0.54;100.00;102919.19;5197972;28;20054;-74
2023/01/29 03:01:29;;;;;;;40.47;25.40;;;;;;;-0.49;100.00;102910.69;5185730;28;20041;-75
2023/01/29 03:04:06;;;;;;;36.00;25.57;;;;;;;-0.64;100.00;102888.09;5146400;28;20031;-72
2023/01/29 03:06:42;;;;;;;33.83;23.63;;;;;;;-0.47;100.00;102917.59;5159132;28;20041;-77
2023/01/29 03:09:21;;;;;;;39.27;26.83;;;;;;;-0.53;100.00;102915.75;5202286;28;20033;-76
2023/01/29 03:12:03;;;;;;;42.63;27.77;;;;;;;-0.68;100.00;102919.72;5223589;28;20300;-76
2023/01/29 03:17:36;;;;;;;35.93;24.70;;;;;;;-0.47;100.00;102918.44;5217464;28;20396;-76
2023/01/29 03:20:13;;;;;;;37.47;25.30;;;;;;;-0.43;100.00;102909.06;5174965;28;20491;-73
2023/01/29 03:22:50;;;;;;;35.67;25.53;;;;;;;-0.45;100.00;102919.34;5167934;28;20029;-72
2023/01/29 03:34:07;;;;;;;42.03;24.50;;;;;;;-0.39;100.00;102914.34;5157321;28;20043;-73
2023/01/29 03:36:48;;;;;;;33.13;23.37;;;;;;;-0.36;100.00;102905.78;5192982;28;20078;-73
2023/01/29 03:39:19;;;;;;;35.97;24.37;;;;;;;-0.37;100.00;102904.91;5131984;28;20597;-75
2023/01/29 03:42:17;;;;;;;36.27;24.23;;;;;;;-0.32;100.00;102910.16;5164440;28;20067;-72
2023/01/29 03:45:01;;;;;;;35.17;25.07;;;;;;;-0.33;100.00;102905.84;5198782;28;20117;-75
2023/01/29 03:47:44;;;;;;;31.60;22.63;;;;;;;-0.28;100.00;102909.38;5159660;28;20090;-76
2023/01/29 03:50:27;;;;;;;33.83;24.17;;;;;;;-0.34;100.00;102893.81;5154127;28;20494;-73
2023/01/29 03:53:09;;;;;;;34.97;25.10;;;;;;;-0.32;100.00;102894.72;5157531;28;20067;-75
2023/01/29 03:55:47;;;;;;;35.37;24.40;;;;;;;-0.25;100.00;102888.84;5150635;28;20028;-75
2023/01/29 03:58:27;;;;;;;31.90;22.07;;;;;;;-0.27;100.00;102887.06;5152660;28;20288;-74
2023/01/29 04:01:03;;;;;;;32.90;22.47;;;;;;;-0.22;100.00;102895.75;5128870;28;20035;-73
2023/01/29 04:03:42;;;;;;;38.03;24.77;;;;;;;-0.37;100.00;102893.75;5201642;28;20029;-72
2023/01/29 04:06:22;;;;;;;34.10;22.77;;;;;;;-0.22;100.00;102893.19;5235509;28;20108;-77
2023/01/29 04:09:12;;;;;;;32.67;22.60;;;;;;;-0.19;100.00;102884.66;5234474;28;20400;-74
2023/01/29 04:11:49;;;;;;;33.30;23.50;;;;;;;-0.20;100.00;102882.91;5232748;28;20128;-77
2023/01/29 04:14:20;;;;;;;35.97;23.97;;;;;;;-0.27;100.00;102869.03;5234962;28;20179;-76
2023/01/29 04:16:57;;;;;;;33.17;23.23;;;;;;;-0.21;100.00;102869.16;5234077;28;20033;-76
2023/01/29 04:19:28;;;;;;;32.60;24.00;;;;;;;-0.20;100.00;102872.59;5217641;28;20028;-76
2023/01/29 04:22:06;;;;;;;33.70;24.07;;;;;;;-0.22;100.00;102871.69;5130445;28;20134;-76
2023/01/29 04:24:38;;;;;;;35.90;26.43;;;;;;;-0.25;100.00;102857.94;5129302;28;20056;-75
2023/01/29 04:27:28;;;;;;;33.97;24.20;;;;;;;-0.15;100.00;102868.41;5128918;28;20063;-74
2023/01/29 04:30:05;;;;;;;32.73;23.50;;;;;;;-0.15;100.00;102865.81;5129140;29;20111;-76
2023/01/29 04:32:48;;;;;;;40.83;24.53;;;;;;;-0.11;100.00;102870.19;5129271;28;20319;-77
2023/01/29 04:35:48;;;;;;;42.50;25.53;;;;;;;-0.11;100.00;102875.34;5130762;29;20489;-76
2023/01/29 04:38:32;;;;;;;32.60;23.77;;;;;;;-0.15;100.00;102870.97;5128915;28;20042;-76
2023/01/29 04:41:06;;;;;;;35.03;25.20;;;;;;;-0.09;100.00;102868.53;5129563;29;20120;-76
2023/01/29 04:43:45;;;;;;;39.92;26.35;;;;;;;-0.13;100.00;102859.00;5130384;29;20062;-76
2023/01/29 04:46:53;;;;;;;37.57;26.03;;;;;;;-0.03;100.00;102860.00;5127652;28;20028;-73
2023/01/29 04:49:33;;;;;;;38.73;26.53;;;;;;;-0.05;100.00;102849.69;5130530;28;20280;-75
2023/01/29 04:52:08;;;;;;;37.10;25.53;;;;;;;-0.06;100.00;102844.50;5129307;29;20067;-73
2023/01/29 04:54:47;;;;;;;33.80;25.05;;;;;;;0.00;100.00;102839.47;5130342;29;20284;-77
2023/01/29 04:57:25;;;;;;;37.73;26.10;;;;;;;0.01;100.00;102842.91;5128172;28;20437;-72
2023/01/29 05:00:12;;;;;;;40.23;26.10;;;;;;;0.00;100.00;102831.75;5131350;28;20032;-73
2023/01/29 05:02:44;;;;;;;36.83;25.93;;;;;;;0.01;100.00;102832.59;5205165;28;20380;-77
2023/01/29 05:05:18;;;;;;;40.63;28.30;;;;;;;-0.02;100.00;102817.97;5233883;28;20072;-74
2023/01/29 05:07:50;;;;;;;38.00;26.35;;;;;;;-0.04;100.00;102823.09;5233530;28;20026;-76
2023/01/29 05:10:23;;;;;;;39.30;27.50;;;;;;;-0.03;100.00;102824.81;5233715;28;20029;-75
2023/01/29 05:13:01;;;;;;;39.30;26.93;;;;;;;-0.07;100.00;102815.28;5232951;28;20109;-76
2023/01/29 05:15:59;;;;;;;38.30;26.57;;;;;;;0.04;100.00;102822.34;5232664;28;20381;-76
2023/01/29 05:18:31;;;;;;;39.47;25.90;;;;;;;-0.01;100.00;102820.56;5233539;28;20042;-76
2023/01/29 05:21:06;;;;;;;37.20;26.20;;;;;;;-0.06;100.00;102801.59;5232401;28;20025;-75
2023/01/29 05:23:37;;;;;;;37.40;26.83;;;;;;;-0.10;100.00;102797.22;5231958;28;20087;-75
2023/01/29 05:26:08;;;;;;;37.80;26.80;;;;;;;-0.02;100.00;102811.09;5232765;28;20438;-76
2023/01/29 05:28:40;;;;;;;39.87;26.97;;;;;;;0.02;100.00;102809.44;5232702;28;20080;-74
2023/01/29 05:31:11;;;;;;;35.87;24.80;;;;;;;0.05;100.00;102800.91;5231809;28;20025;-72
2023/01/29 05:33:42;;;;;;;41.00;27.50;;;;;;;0.05;100.00;102795.75;5232697;28;20032;-75
2023/01/29 05:36:13;;;;;;;36.83;25.87;;;;;;;0.09;100.00;102805.25;5233203;28;20022;-74
2023/01/29 05:38:45;;;;;;;37.63;26.60;;;;;;;0.01;100.00;102802.56;5232940;28;20022;-74
2023/01/29 05:41:16;;;;;;;38.23;27.03;;;;;;;0.01;100.00;102796.53;5231741;28;20036;-74
2023/01/29 05:43:47;;;;;;;40.17;28.50;;;;;;;0.01;100.00;102799.09;5233037;28;20495;-75
2023/01/29 05:46:19;;;;;;;37.17;26.77;;;;;;;0.05;100.00;102803.47;5231815;28;20030;-75
2023/01/29 05:48:53;;;;;;;35.47;26.40;;;;;;;0.02;100.00;102785.41;5233147;28;20033;-75
2023/01/29 05:51:25;;;;;;;37.53;27.13;;;;;;;0.12;100.00;102807.91;5232941;28;20111;-75
2023/01/29 05:53:56;;;;;;;38.20;27.53;;;;;;;0.08;100.00;102800.94;5232702;28;20073;-74
2023/01/29 05:56:27;;;;;;;40.70;27.87;;;;;;;0.13;100.00;102817.34;5217706;28;20035;-74
2023/01/29 05:58:59;;;;;;;44.83;29.43;;;;;;;0.02;100.00;102803.44;5128133;29;20386;-72
2023/01/29 06:01:30;;;;;;;44.73;29.87;;;;;;;-0.06;100.00;102811.03;5151046;28;20169;-73
2023/01/29 06:04:01;;;;;;;43.70;28.43;;;;;;;0.13;100.00;102822.50;5230782;28;20488;-75
2023/01/29 06:06:33;;;;;;;39.13;28.83;;;;;;;0.16;100.00;102817.38;5232638;28;20074;-76
2023/01/29 06:09:04;;;;;;;45.67;31.77;;;;;;;0.18;100.00;102820.88;5232373;28;20045;-75
2023/01/29 06:11:35;;;;;;;44.30;31.20;;;;;;;0.11;100.00;102813.88;5232858;28;20475;-75
2023/01/29 06:14:07;;;;;;;44.70;31.63;;;;;;;0.22;100.00;102825.25;5231141;28;20083;-76
2023/01/29 06:16:38;;;;;;;42.50;29.27;;;;;;;0.23;100.00;102824.38;5232358;28;20484;-76
2023/01/29 06:19:09;;;;;;;42.70;29.30;;;;;;;0.22;100.00;102827.81;5232828;28;20497;-76
2023/01/29 06:21:40;;;;;;;40.77;29.20;;;;;;;0.27;100.00;102842.47;5232494;28;20064;-72
2023/01/29 06:24:12;;;;;;;45.03;31.17;;;;;;;0.21;100.00;102838.09;5231371;28;20104;-74
2023/01/29 06:26:43;;;;;;;41.53;28.73;;;;;;;0.25;100.00;102842.44;5232046;28;20029;-73
2023/01/29 06:29:14;;;;;;;41.67;31.50;;;;;;;0.27;100.00;102845.91;5232657;28;20033;-74
2023/01/29 06:31:46;;;;;;;46.00;31.30;;;;;;;0.31;100.00;102846.84;5231488;28;20033;-75
2023/01/29 06:34:17;;;;;;;44.20;32.23;;;;;;;0.16;100.00;102799.34;5232537;28;20496;-74
2023/01/29 06:36:48;;;;;;;45.57;30.80;;;;;;;0.28;100.00;102808.97;5231282;28;20030;-75
2023/01/29 06:39:19;;;;;;;43.50;29.67;;;;;;;0.29;100.00;102794.38;5204803;28;20121;-75
2023/01/29 06:41:51;;;;;;;43.53;29.40;;;;;;;0.28;100.00;102790.09;5128596;29;20047;-76
2023/01/29 06:44:22;;;;;;;41.80;30.93;;;;;;;0.32;100.00;102797.88;5128217;29;20031;-71
2023/01/29 06:46:53;;;;;;;43.10;31.43;;;;;;;0.31;100.00;102800.44;5127598;29;20081;-76
2023/01/29 06:49:24;;;;;;;47.73;31.43;;;;;;;0.28;100.00;102810.72;5128630;29;20031;-75
2023/01/29 06:51:56;;;;;;;40.87;29.37;;;;;;;0.31;100.00;102805.59;5113481;28;20379;-73
2023/01/29 06:54:28;;;;;;;44.70;31.27;;;;;;;0.30;100.00;102798.69;5109131;29;20436;-72
2023/01/29 06:56:59;;;;;;;44.97;30.33;;;;;;;0.25;100.00;102790.91;5108438;28;20032;-76
2023/01/29 06:59:30;;;;;;;45.23;31.93;;;;;;;0.31;100.00;102790.13;5108579;29;20298;-75
2023/01/29 07:02:02;;;;;;;43.40;30.90;;;;;;;0.32;100.00;102781.53;5157929;28;20040;-75
2023/01/29 07:04:35;;;;;;;43.60;31.77;;;;;;;0.38;100.00;102791.09;5137896;28;20035;-77
2023/01/29 07:07:12;;;;;;;40.87;29.33;;;;;;;0.34;100.00;102779.84;5125730;29;20127;-77
2023/01/29 07:09:43;;;;;;;44.07;31.27;;;;;;;0.37;100.00;102790.22;5126656;29;20666;-75
2023/01/29 07:12:14;;;;;;;43.10;30.90;;;;;;;0.40;100.00;102790.25;5127676;28;20046;-75
2023/01/29 07:14:45;;;;;;;45.17;30.50;;;;;;;0.35;100.00;102784.16;5127075;29;20055;-78
2023/01/29 07:17:17;;;;;;;47.00;31.80;;;;;;;0.41;100.00;102791.13;5128146;29;20475;-77
2023/01/29 07:19:48;;;;;;;45.13;32.77;;;;;;;0.33;100.00;102783.28;5127903;29;20032;-77
2023/01/29 07:22:19;;;;;;;42.00;30.83;;;;;;;0.39;100.00;102797.97;5127904;29;20503;-73
2023/01/29 07:24:51;;;;;;;43.33;30.13;;;;;;;0.39;100.00;102804.00;5127952;29;20457;-78
2023/01/29 07:27:22;;;;;;;43.57;31.67;;;;;;;0.34;100.00;102801.34;5128076;28;20031;-77
2023/01/29 07:29:53;;;;;;;45.63;30.10;;;;;;;0.34;100.00;102796.19;5127212;29;20043;-77
2023/01/29 07:32:24;;;;;;;43.07;30.77;;;;;;;0.46;100.00;102800.66;5126674;28;20450;-76
2023/01/29 07:34:56;;;;;;;43.90;31.13;;;;;;;0.42;100.00;102806.59;5128892;29;20494;-75
2023/01/29 07:37:27;;;;;;;47.17;30.67;;;;;;;0.41;100.00;102801.44;5131060;29;20506;-74
2023/01/29 07:39:58;;;;;;;42.33;29.70;;;;;;;0.45;100.00;102793.78;5131501;29;20474;-75
2023/01/29 07:42:30;;;;;;;46.17;31.20;;;;;;;0.43;100.00;102780.00;5129934;28;20417;-76
2023/01/29 07:45:01;;;;;;;44.03;32.13;;;;;;;0.44;100.00;102776.56;5128709;28;20525;-77
2023/01/29 07:47:32;;;;;;;43.53;30.17;;;;;;;0.46;100.00;102776.59;5130973;29;20034;-76
2023/01/29 07:50:04;;;;;;;42.97;31.60;;;;;;;0.45;100.00;102787.75;5130317;29;20374;-76
2023/01/29 07:52:35;;;;;;;41.33;29.57;;;;;;;0.46;100.00;102799.78;5131189;29;20123;-79
2023/01/29 07:55:07;;;;;;;42.57;31.20;;;;;;;0.47;100.00;102796.38;5130623;29;20044;-73
2023/01/29 07:57:38;;;;;;;42.10;30.23;;;;;;;0.50;100.00;102811.00;5130738;29;20093;-78
2023/01/29 08:00:10;;;;;;;44.20;31.93;;;;;;;0.52;100.00;102799.91;5127819;28;20098;-76
2023/01/29 08:02:42;;;;;;;42.37;30.63;;;;;;;0.54;100.00;102792.19;5152693;28;20102;-74
2023/01/29 08:05:13;;;;;;;41.97;29.20;;;;;;;0.53;100.00;102786.16;5186707;28;20037;-76
2023/01/29 08:07:45;;;;;;;42.23;30.13;;;;;;;0.45;100.00;102791.22;5136194;28;20401;-72
2023/01/29 08:10:16;;;;;;;39.10;29.03;;;;;;;0.46;100.00;102780.03;5160003;28;20047;-72
2023/01/29 08:12:53;;;;;;;42.83;29.40;;;;;;;0.53;100.00;102786.16;5159262;28;20117;-76
2023/01/29 08:15:25;;;;;;;41.27;28.47;;;;;;;0.54;100.00;102787.88;5137160;28;20068;-74
2023/01/29 08:17:57;;;;;;;43.03;29.43;;;;;;;0.55;100.00;102774.16;5200569;28;20041;-73
2023/01/29 08:20:28;;;;;;;42.90;29.30;;;;;;;0.56;100.00;102775.03;5125644;28;20519;-71
2023/01/29 08:23:05;;;;;;;39.63;28.20;;;;;;;0.59;100.00;102785.38;5157403;28;20037;-70
2023/01/29 08:25:37;;;;;;;44.20;29.50;;;;;;;0.59;100.00;102780.22;5119238;28;20315;-71
2023/01/29 08:28:08;;;;;;;40.57;28.87;;;;;;;0.59;100.00;102780.22;5143906;28;20063;-72
2023/01/29 08:30:40;;;;;;;39.93;29.13;;;;;;;0.62;100.00;102767.34;5156948;28;20038;-76
2023/01/29 08:33:11;;;;;;;40.83;29.47;;;;;;;0.66;100.00;102763.97;5178873;28;20121;-74
2023/01/29 08:35:42;;;;;;;40.30;29.83;;;;;;;0.64;100.00;102763.09;5172444;28;20154;-73
2023/01/29 08:38:13;;;;;;;40.80;29.50;;;;;;;0.57;100.00;102749.25;5149890;28;20035;-75
2023/01/29 08:40:45;;;;;;;40.97;28.67;;;;;;;0.62;100.00;102766.47;5146164;28;20055;-72
2023/01/29 08:43:16;;;;;;;41.27;29.93;;;;;;;0.58;100.00;102753.56;5143122;28;20039;-73
2023/01/29 08:45:47;;;;;;;42.90;29.27;;;;;;;0.62;100.00;102748.44;5172311;28;20120;-73
2023/01/29 08:48:19;;;;;;;38.53;28.60;;;;;;;0.64;100.00;102746.75;5187478;28;20040;-72
2023/01/29 08:50:50;;;;;;;43.87;29.03;;;;;;;0.67;100.00;102746.78;5188999;28;20045;-73
2023/01/29 08:53:23;;;;;;;39.43;27.77;;;;;;;0.70;100.00;102737.38;5204229;28;20764;-73
2023/01/29 08:55:55;;;;;;;40.57;28.90;;;;;;;0.71;100.00;102744.28;5131023;28;20910;-73
2023/01/29 08:58:26;;;;;;;38.77;28.23;;;;;;;0.68;100.00;102744.22;5160279;28;20054;-72
2023/01/29 09:01:05;;;;;;;37.13;28.20;;;;;;;0.69;100.00;102740.81;5200824;28;20037;-72
2023/01/29 09:03:39;;;;;;;39.23;28.17;;;;;;;0.71;100.00;102753.72;5169641;28;20384;-72
2023/01/29 09:06:11;;;;;;;40.50;28.35;;;;;;;0.72;100.00;102751.16;5184234;28;20033;-72
2023/01/29 09:08:43;;;;;;;41.13;28.80;;;;;;;0.70;100.00;102745.09;5141491;28;20036;-73
2023/01/29 09:11:14;;;;;;;37.27;26.00;;;;;;;0.75;100.00;102746.88;5161006;28;20036;-73
2023/01/29 09:13:45;;;;;;;38.13;26.33;;;;;;;0.71;100.00;102744.28;5171501;28;20038;-72
2023/01/29 09:16:17;;;;;;;36.47;25.83;;;;;;;0.76;100.00;102740.88;5174081;28;20126;-72
2023/01/29 09:18:48;;;;;;;39.40;27.83;;;;;;;0.77;100.00;102732.28;5163843;28;20037;-72
2023/01/29 09:21:19;;;;;;;35.77;24.97;;;;;;;0.76;100.00;102730.56;5192342;28;20063;-72
2023/01/29 09:23:50;;;;;;;39.83;26.53;;;;;;;0.77;100.00;102740.03;5128428;28;20040;-72
2023/01/29 09:26:22;;;;;;;35.43;25.23;;;;;;;0.66;100.00;102714.09;5158267;28;20068;-71
2023/01/29 09:28:54;;;;;;;39.47;27.03;;;;;;;0.77;100.00;102740.03;5166757;28;20090;-76
2023/01/29 09:31:25;;;;;;;38.53;25.77;;;;;;;0.78;100.00;102734.03;5141328;28;20035;-73
2023/01/29 09:33:56;;;;;;;37.93;26.67;;;;;;;0.65;100.00;102718.38;5139890;28;20051;-71
2023/01/29 09:36:27;;;;;;;36.40;25.50;;;;;;;0.79;100.00;102731.44;5130493;28;20490;-72
2023/01/29 09:38:59;;;;;;;38.07;26.27;;;;;;;0.78;100.00;102734.03;5188355;28;20120;-73
2023/01/29 09:41:45;;;;;;;34.63;25.07;;;;;;;0.84;100.00;102734.94;5153753;28;20739;-72
2023/01/29 09:44:46;;;;;;;37.20;25.37;;;;;;;0.82;100.00;102730.63;5132912;28;20532;-75
2023/01/29 09:47:21;;;;;;;34.97;24.30;;;;;;;0.81;100.00;102723.72;5138784;28;20044;-75
2023/01/29 09:50:00;;;;;;;;;;;;;;;0.93;100.00;102733.31;5128088;28;20039;-72
2023/01/29 09:52:57;;;;;;;37.07;25.10;;;;;;;0.86;100.00;102721.19;5151998;28;20081;-71
2023/01/29 09:55:34;;;;;;;36.33;25.50;;;;;;;0.85;100.00;102735.84;5157016;28;20087;-76
2023/01/29 09:58:30;;;;;;;36.80;24.47;;;;;;;0.87;100.00;102725.53;5138270;28;20032;-73
2023/01/29 10:01:31;;;;;;;35.73;25.47;;;;;;;0.91;100.00;102728.16;5115511;28;20044;-72
2023/01/29 10:04:05;;;;;;;35.07;23.83;;;;;;;0.91;100.00;102729.88;5132531;28;20922;-74
2023/01/29 10:07:02;;;;;;;32.88;23.75;;;;;;;0.95;100.00;102732.50;5111981;29;20038;-74
2023/01/29 10:10:06;;;;;;;32.70;24.00;;;;;;;0.94;100.00;102728.19;5116370;29;20024;-71
2023/01/29 10:12:46;;;;;;;35.47;24.20;;;;;;;0.99;100.00;102735.13;5127820;29;20376;-71
2023/01/29 10:15:30;;;;;;;34.07;24.20;;;;;;;0.96;100.00;102729.06;5126855;28;20094;-74
2023/01/29 10:18:10;;;;;;;35.67;25.47;;;;;;;0.94;100.00;102725.59;5128216;28;20038;-74
2023/01/29 10:20:45;;;;;;;35.20;25.10;;;;;;;1.03;100.00;102730.00;5126240;29;20107;-72
2023/01/29 10:23:22;;;;;;;38.33;24.98;;;;;;;1.07;100.00;102736.06;5121759;29;20402;-71
2023/01/29 10:25:54;;;;;;;34.13;24.30;;;;;;;1.05;100.00;102730.00;5129722;28;20039;-72
2023/01/29 10:28:45;;;;;;;36.57;23.87;;;;;;;1.07;100.00;102729.19;5127516;29;20433;-73
2023/01/29 10:31:28;;;;;;;34.17;24.57;;;;;;;1.05;100.00;102732.59;5113574;29;20039;-72
2023/01/29 10:34:06;;;;;;;40.13;25.53;;;;;;;1.09;100.00;102729.19;5124246;28;20363;-72
2023/01/29 10:36:42;;;;;;;33.20;23.13;;;;;;;1.06;100.00;102719.72;5148268;28;20036;-72
2023/01/29 10:39:19;;;;;;;34.60;24.47;;;;;;;1.09;100.00;102721.47;5133498;28;20023;-72
2023/01/29 10:42:18;;;;;;;36.03;24.60;;;;;;;1.16;100.00;102725.84;5168437;28;20538;-74
2023/01/29 10:45:19;;;;;;;33.43;23.77;;;;;;;1.16;100.00;102719.81;5159108;28;20061;-72
2023/01/29 10:48:23;;;;;;;34.63;22.97;;;;;;;1.15;100.00;102713.78;5149969;28;20075;-78
2023/01/29 10:51:05;;;;;;;34.93;24.23;;;;;;;1.23;100.00;102712.97;5163122;28;20057;-77
2023/01/29 10:54:04;;;;;;;36.97;24.47;;;;;;;1.27;100.00;102714.75;5185353;28;20034;-74
2023/01/29 10:57:11;;;;;;;32.93;22.43;;;;;;;1.34;100.00;102713.97;5132926;28;20040;-75
2023/01/29 11:00:00;;;;;;;33.10;22.60;;;;;;;1.34;100.00;102711.38;5165627;28;20040;-73
2023/01/29 11:02:33;;;;;;;32.53;22.50;;;;;;;1.36;100.00;102704.53;5185435;28;20142;-76
2023/01/29 11:05:19;;;;;;;31.80;22.63;;;;;;;1.41;100.00;102705.44;5161608;28;20565;-78
2023/01/29 11:08:04;;;;;;;30.93;21.70;;;;;;;1.38;100.00;102681.31;5144379;28;20503;-77
2023/01/29 11:10:53;;;;;;;29.07;20.87;;;;;;;1.47;100.00;102685.69;5157573;28;20398;-74
2023/01/29 11:13:31;;;;;;;28.53;20.27;;;;;;;1.47;100.00;102672.78;5120668;28;20106;-73
2023/01/29 11:16:04;;;;;;;29.37;20.57;;;;;;;1.47;100.00;102672.78;5139778;28;20170;-74
2023/01/29 11:18:52;;;;;;;30.93;21.27;;;;;;;1.52;100.00;102665.94;5164827;28;20037;-74
2023/01/29 11:21:25;;;;;;;26.10;20.07;;;;;;;1.54;100.00;102661.59;5204142;28;20063;-74
2023/01/29 11:24:14;;;;;;;29.83;20.70;;;;;;;1.57;100.00;102652.16;5169413;28;20052;-77
2023/01/29 11:26:48;;;;;;;29.10;21.03;;;;;;;1.59;100.00;102652.19;5163593;28;20033;-75
2023/01/29 11:29:28;;;;;;;29.40;21.38;;;;;;;1.62;100.00;102646.19;5153636;28;20394;-74
2023/01/29 11:32:04;;;;;;;27.40;19.90;;;;;;;1.64;100.00;102641.91;5155149;28;20046;-74
2023/01/29 11:34:55;;;;;;;32.40;20.67;;;;;;;1.63;100.00;102622.94;5167397;28;20040;-74
2023/01/29 11:37:36;;;;;;;30.43;19.27;;;;;;;1.62;100.00;102613.47;5170316;28;21661;-75
2023/01/29 11:40:22;;;;;;;33.40;21.00;;;;;;;1.72;100.00;102616.09;5194440;28;20083;-73
2023/01/29 11:42:54;;;;;;;30.17;21.63;;;;;;;1.71;100.00;102614.38;5182429;28;20730;-73
2023/01/29 11:45:26;;;;;;;32.43;21.17;;;;;;;1.71;100.00;102604.06;5179629;28;20044;-71
2023/01/29 11:47:58;;;;;;;27.80;21.10;;;;;;;1.69;100.00;102601.47;5157226;28;20032;-70
2023/01/29 11:50:32;;;;;;;29.30;19.97;;;;;;;1.74;100.00;102599.78;5189016;28;20042;-70
2023/01/29 11:53:05;;;;;;;27.52;19.88;;;;;;;1.80;100.00;102596.34;5163632;28;20493;-75
2023/01/29 11:55:37;;;;;;;26.13;19.00;;;;;;;1.78;100.00;102585.16;5137070;28;20028;-74
2023/01/29 11:58:28;;;;;;;28.13;21.20;;;;;;;1.88;100.00;102581.75;5129926;29;20548;-77
2023/01/29 12:01:00;;;;;;;26.30;20.30;;;;;;;1.88;100.00;102579.19;5129929;28;20031;-70
2023/01/29 12:03:47;;;;;;;28.70;20.47;;;;;;;1.89;100.00;102556.75;5127195;28;20414;-72
2023/01/29 12:06:22;;;;;;;27.47;19.67;;;;;;;1.98;100.00;102554.22;5127169;28;20059;-74
2023/01/29 12:08:57;;;;;;;30.27;20.43;;;;;;;1.98;100.00;102551.66;5130578;29;20487;-73
2023/01/29 12:11:30;;;;;;;26.90;19.30;;;;;;;1.98;100.00;102546.47;5130431;28;20036;-72
2023/01/29 12:14:25;;;;;;;30.07;19.97;;;;;;;2.00;100.00;102541.31;5154746;28;20025;-74